createdAt,value
2016-08-15T00:00:26.506Z,21.79
2016-08-15T00:01:25.784Z,21.66
2016-08-15T00:02:26.471Z,21.66
2016-08-15T00:03:26.456Z,21.71
2016-08-15T00:04:26.438Z,21.77
2016-08-15T00:05:26.417Z,21.73
2016-08-15T00:06:25.707Z,21.68
2016-08-15T00:07:26.388Z,21.77
2016-08-15T00:08:25.661Z,21.74
2016-08-15T00:09:26.354Z,21.75
2016-08-15T00:10:26.345Z,21.77
2016-08-15T00:11:25.617Z,21.77
2016-08-15T00:12:26.313Z,21.79
2016-08-15T00:13:26.297Z,21.75
2016-08-15T00:14:26.287Z,21.79
2016-08-15T00:15:26.271Z,21.77
2016-08-15T00:16:26.245Z,21.75
2016-08-15T00:17:26.237Z,21.74
2016-08-15T00:18:26.214Z,21.77
2016-08-15T00:19:26.195Z,21.77
2016-08-15T00:20:26.183Z,21.74
2016-08-15T00:21:26.172Z,21.77
2016-08-15T00:22:25.446Z,21.77
2016-08-15T00:23:26.129Z,21.75
2016-08-15T00:24:26.114Z,21.79
2016-08-15T00:25:26.101Z,21.85
2016-08-15T00:26:26.079Z,21.77
2016-08-15T00:27:26.084Z,21.85
2016-08-15T00:28:26.053Z,21.79
2016-08-15T00:29:26.036Z,21.71
2016-08-15T00:30:26.020Z,21.83
2016-08-15T00:31:26.002Z,21.89
2016-08-15T00:32:25.274Z,21.77
2016-08-15T00:33:25.974Z,21.86
2016-08-15T00:34:25.955Z,21.82
2016-08-15T00:35:25.945Z,21.86
2016-08-15T00:36:25.920Z,21.89
2016-08-15T00:37:25.903Z,21.79
2016-08-15T00:38:25.889Z,21.86
2016-08-15T00:39:25.876Z,21.91
2016-08-15T00:40:25.862Z,21.82
2016-08-15T00:41:25.845Z,21.85
2016-08-15T00:42:25.818Z,21.89
2016-08-15T00:43:25.813Z,21.82
2016-08-15T00:44:25.785Z,21.85
2016-08-15T00:45:25.779Z,21.86
2016-08-15T00:46:25.781Z,21.9
2016-08-15T00:47:25.744Z,21.75
2016-08-15T00:48:25.729Z,21.89
2016-08-15T00:49:25.727Z,21.89
2016-08-15T00:50:25.692Z,21.85
2016-08-15T00:51:25.675Z,21.83
2016-08-15T00:52:24.947Z,21.79
2016-08-15T00:53:25.639Z,21.83
2016-08-15T00:54:25.626Z,21.83
2016-08-15T00:55:25.618Z,21.85
2016-08-15T00:56:25.598Z,21.85
2016-08-15T00:57:25.583Z,21.85
2016-08-15T00:58:25.562Z,21.82
2016-08-15T00:59:25.551Z,21.77
2016-08-15T01:00:24.823Z,21.74
2016-08-15T01:01:25.531Z,21.86
2016-08-15T01:02:25.493Z,21.83
2016-08-15T01:03:25.483Z,21.85
2016-08-15T01:04:25.466Z,21.85
2016-08-15T01:05:25.448Z,21.91
2016-08-15T01:06:25.436Z,21.86
2016-08-15T01:07:25.424Z,21.86
2016-08-15T01:08:25.400Z,21.82
2016-08-15T01:09:25.388Z,21.89
2016-08-15T01:10:25.371Z,21.91
2016-08-15T01:11:25.359Z,21.81
2016-08-15T01:12:25.334Z,21.82
2016-08-15T01:13:25.315Z,21.83
2016-08-15T01:14:25.311Z,21.89
2016-08-15T01:15:24.572Z,21.86
2016-08-15T01:16:25.281Z,21.91
2016-08-15T01:17:24.546Z,21.9
2016-08-15T01:18:25.244Z,21.89
2016-08-15T01:19:25.226Z,21.83
2016-08-15T01:20:25.209Z,21.89
2016-08-15T01:21:25.191Z,21.89
2016-08-15T01:22:25.175Z,21.83
2016-08-15T01:23:25.160Z,21.89
2016-08-15T01:24:25.154Z,21.89
2016-08-15T01:25:25.130Z,21.82
2016-08-15T01:26:25.125Z,21.86
2016-08-15T01:27:25.097Z,21.85
2016-08-15T01:28:25.078Z,21.82
2016-08-15T01:29:25.069Z,21.85
2016-08-15T01:30:25.048Z,21.93
2016-08-15T01:31:25.035Z,21.83
2016-08-15T01:32:25.017Z,21.83
2016-08-15T01:33:25.004Z,21.89
2016-08-15T01:34:24.979Z,21.85
2016-08-15T01:35:24.962Z,21.83
2016-08-15T01:36:24.946Z,21.81
2016-08-15T01:37:24.933Z,21.83
2016-08-15T01:38:24.916Z,21.83
2016-08-15T01:39:24.905Z,21.82
2016-08-15T01:40:24.884Z,21.9
2016-08-15T01:41:24.156Z,21.85
2016-08-15T01:42:24.857Z,21.79
2016-08-15T01:43:24.836Z,21.86
2016-08-15T01:44:24.816Z,21.82
2016-08-15T01:45:24.796Z,21.89
2016-08-15T01:46:24.787Z,21.89
2016-08-15T01:47:24.776Z,21.85
2016-08-15T01:48:24.752Z,21.86
2016-08-15T01:49:24.741Z,21.89
2016-08-15T01:50:24.721Z,21.86
2016-08-15T01:51:24.706Z,21.91
2016-08-15T01:52:24.693Z,21.81
2016-08-15T01:53:24.668Z,21.91
2016-08-15T01:54:24.656Z,21.85
2016-08-15T01:55:24.644Z,21.86
2016-08-15T01:56:24.626Z,21.86
2016-08-15T01:57:24.608Z,21.89
2016-08-15T01:58:24.590Z,21.89
2016-08-15T01:59:24.578Z,21.85
2016-08-15T02:00:24.565Z,21.81
2016-08-15T02:01:24.540Z,21.89
2016-08-15T02:02:24.521Z,21.81
2016-08-15T02:03:23.809Z,21.86
2016-08-15T02:04:24.508Z,21.85
2016-08-15T02:05:24.484Z,21.83
2016-08-15T02:06:24.467Z,21.83
2016-08-15T02:07:23.735Z,21.85
2016-08-15T02:08:24.436Z,21.85
2016-08-15T02:09:24.418Z,21.85
2016-08-15T02:10:24.408Z,21.91
2016-08-15T02:11:24.390Z,21.82
2016-08-15T02:12:24.367Z,21.77
2016-08-15T02:13:24.349Z,21.89
2016-08-15T02:14:23.619Z,21.86
2016-08-15T02:15:24.318Z,21.86
2016-08-15T02:16:24.302Z,21.85
2016-08-15T02:17:24.289Z,21.85
2016-08-15T02:18:24.270Z,21.81
2016-08-15T02:19:23.548Z,21.85
2016-08-15T02:20:24.237Z,21.81
2016-08-15T02:21:24.233Z,21.86
2016-08-15T02:22:23.497Z,21.94
2016-08-15T02:23:24.186Z,21.99
2016-08-15T02:24:24.173Z,21.89
2016-08-15T02:25:24.160Z,21.82
2016-08-15T02:26:23.436Z,21.93
2016-08-15T02:27:24.143Z,21.9
2016-08-15T02:28:24.113Z,21.83
2016-08-15T02:29:24.092Z,21.91
2016-08-15T02:30:24.077Z,21.94
2016-08-15T02:31:24.053Z,21.85
2016-08-15T02:32:24.050Z,21.94
2016-08-15T02:33:24.044Z,21.79
2016-08-15T02:34:24.007Z,21.89
2016-08-15T02:35:24.008Z,21.91
2016-08-15T02:36:23.978Z,21.83
2016-08-15T02:37:23.967Z,21.85
2016-08-15T02:38:23.946Z,21.82
2016-08-15T02:39:23.944Z,21.94
2016-08-15T02:40:23.912Z,21.82
2016-08-15T02:41:23.895Z,21.91
2016-08-15T02:42:23.885Z,21.94
2016-08-15T02:43:23.869Z,21.98
2016-08-15T02:44:23.854Z,21.82
2016-08-15T02:45:23.834Z,21.96
2016-08-15T02:46:23.817Z,21.93
2016-08-15T02:47:23.794Z,21.82
2016-08-15T02:48:23.781Z,21.85
2016-08-15T02:49:23.765Z,21.96
2016-08-15T02:50:23.766Z,21.89
2016-08-15T02:51:23.738Z,21.9
2016-08-15T02:52:23.722Z,21.91
2016-08-15T02:53:23.719Z,21.94
2016-08-15T02:54:23.678Z,21.96
2016-08-15T02:55:23.679Z,21.99
2016-08-15T02:56:23.659Z,21.89
2016-08-15T02:57:23.644Z,21.85
2016-08-15T02:58:23.622Z,21.86
2016-08-15T02:59:23.610Z,21.83
2016-08-15T03:00:23.595Z,21.86
2016-08-15T03:01:23.579Z,21.86
2016-08-15T03:02:23.554Z,21.89
2016-08-15T03:03:23.551Z,21.85
2016-08-15T03:04:23.529Z,21.81
2016-08-15T03:05:23.509Z,21.85
2016-08-15T03:06:23.491Z,21.83
2016-08-15T03:07:22.766Z,21.89
2016-08-15T03:08:23.469Z,21.89
2016-08-15T03:09:23.465Z,21.85
2016-08-15T03:10:23.439Z,21.85
2016-08-15T03:11:23.419Z,21.89
2016-08-15T03:12:23.401Z,21.83
2016-08-15T03:13:23.376Z,21.81
2016-08-15T03:14:23.375Z,21.79
2016-08-15T03:15:23.373Z,21.89
2016-08-15T03:16:23.342Z,21.77
2016-08-15T03:17:23.318Z,21.79
2016-08-15T03:18:23.302Z,21.77
2016-08-15T03:19:23.278Z,21.75
2016-08-15T03:20:23.265Z,21.79
2016-08-15T03:21:23.248Z,21.82
2016-08-15T03:22:23.239Z,21.85
2016-08-15T03:23:23.214Z,21.82
2016-08-15T03:24:23.205Z,21.89
2016-08-15T03:25:23.192Z,21.74
2016-08-15T03:26:23.176Z,21.75
2016-08-15T03:27:23.157Z,21.79
2016-08-15T03:28:23.131Z,21.77
2016-08-15T03:29:23.127Z,21.85
2016-08-15T03:30:23.106Z,21.79
2016-08-15T03:31:23.088Z,21.81
2016-08-15T03:32:23.086Z,21.81
2016-08-15T03:33:23.063Z,21.83
2016-08-15T03:34:23.077Z,21.75
2016-08-15T03:35:23.021Z,21.77
2016-08-15T03:36:23.008Z,21.77
2016-08-15T03:37:23.001Z,21.79
2016-08-15T03:38:22.980Z,21.75
2016-08-15T03:39:22.252Z,21.75
2016-08-15T03:40:22.956Z,21.77
2016-08-15T03:41:22.928Z,21.75
2016-08-15T03:42:22.219Z,21.79
2016-08-15T03:43:22.187Z,21.71
2016-08-15T03:44:22.875Z,21.75
2016-08-15T03:45:22.154Z,21.75
2016-08-15T03:46:22.843Z,21.79
2016-08-15T03:47:22.831Z,21.81
2016-08-15T03:48:22.815Z,21.81
2016-08-15T03:49:22.796Z,21.77
2016-08-15T03:50:22.785Z,21.79
2016-08-15T03:51:22.766Z,21.81
2016-08-15T03:52:22.743Z,21.74
2016-08-15T03:53:22.734Z,21.71
2016-08-15T03:54:22.720Z,21.7
2016-08-15T03:55:22.702Z,21.74
2016-08-15T03:56:22.691Z,21.77
2016-08-15T03:57:22.669Z,21.71
2016-08-15T03:58:22.650Z,21.75
2016-08-15T03:59:21.924Z,21.77
2016-08-15T04:00:22.629Z,21.74
2016-08-15T04:01:22.602Z,21.81
2016-08-15T04:02:22.596Z,21.74
2016-08-15T04:03:22.571Z,21.81
2016-08-15T04:04:22.556Z,21.75
2016-08-15T04:05:21.837Z,21.74
2016-08-15T04:06:21.820Z,21.71
2016-08-15T04:07:21.798Z,21.77
2016-08-15T04:08:21.783Z,21.74
2016-08-15T04:09:21.775Z,21.71
2016-08-15T04:10:22.467Z,21.75
2016-08-15T04:11:22.442Z,21.73
2016-08-15T04:12:22.433Z,21.74
2016-08-15T04:13:22.412Z,21.71
2016-08-15T04:14:21.684Z,21.81
2016-08-15T04:15:22.381Z,21.81
2016-08-15T04:16:22.361Z,21.81
2016-08-15T04:17:22.355Z,21.83
2016-08-15T04:18:21.622Z,21.77
2016-08-15T04:19:21.613Z,21.81
2016-08-15T04:20:22.314Z,21.73
2016-08-15T04:21:21.577Z,21.73
2016-08-15T04:22:22.265Z,21.81
2016-08-15T04:23:22.259Z,21.7
2016-08-15T04:24:22.236Z,21.77
2016-08-15T04:25:22.237Z,21.74
2016-08-15T04:26:22.202Z,21.77
2016-08-15T04:27:22.198Z,21.77
2016-08-15T04:28:22.166Z,21.79
2016-08-15T04:29:22.147Z,21.77
2016-08-15T04:30:22.136Z,21.75
2016-08-15T04:31:22.124Z,21.73
2016-08-15T04:32:22.104Z,21.75
2016-08-15T04:33:22.084Z,21.73
2016-08-15T04:34:22.092Z,21.75
2016-08-15T04:35:22.055Z,21.77
2016-08-15T04:36:21.329Z,21.81
2016-08-15T04:37:22.024Z,21.75
2016-08-15T04:38:22.001Z,21.81
2016-08-15T04:39:22.002Z,21.75
2016-08-15T04:40:21.967Z,21.75
2016-08-15T04:41:21.970Z,21.77
2016-08-15T04:42:21.234Z,21.79
2016-08-15T04:43:21.927Z,21.82
2016-08-15T04:44:21.194Z,21.77
2016-08-15T04:45:21.891Z,21.77
2016-08-15T04:46:21.876Z,21.79
2016-08-15T04:47:21.859Z,21.79
2016-08-15T04:48:21.846Z,21.79
2016-08-15T04:49:21.828Z,21.73
2016-08-15T04:50:21.825Z,21.77
2016-08-15T04:51:21.793Z,21.77
2016-08-15T04:52:21.782Z,21.83
2016-08-15T04:53:21.763Z,21.74
2016-08-15T04:54:21.748Z,21.73
2016-08-15T04:55:21.721Z,21.77
2016-08-15T04:56:21.002Z,21.75
2016-08-15T04:57:21.698Z,21.75
2016-08-15T04:58:21.689Z,21.75
2016-08-15T04:59:21.666Z,21.71
2016-08-15T05:00:21.661Z,21.74
2016-08-15T05:01:21.634Z,21.79
2016-08-15T05:02:21.614Z,21.81
2016-08-15T05:03:21.622Z,21.77
2016-08-15T05:04:21.586Z,21.67
2016-08-15T05:05:20.864Z,21.75
2016-08-15T05:06:21.551Z,21.71
2016-08-15T05:07:21.536Z,21.7
2016-08-15T05:08:21.529Z,21.66
2016-08-15T05:09:21.511Z,21.68
2016-08-15T05:10:21.482Z,21.61
2016-08-15T05:11:21.473Z,21.58
2016-08-15T05:12:21.452Z,21.53
2016-08-15T05:13:20.729Z,21.55
2016-08-15T05:14:21.426Z,21.36
2016-08-15T05:15:20.700Z,21.43
2016-08-15T05:16:21.387Z,21.53
2016-08-15T05:17:21.370Z,21.53
2016-08-15T05:18:21.358Z,21.4
2016-08-15T05:19:21.339Z,21.42
2016-08-15T05:20:21.327Z,21.36
2016-08-15T05:21:21.306Z,21.49
2016-08-15T05:22:21.293Z,21.4
2016-08-15T05:23:21.276Z,21.42
2016-08-15T05:24:21.255Z,21.31
2016-08-15T05:25:20.536Z,21.36
2016-08-15T05:26:21.232Z,21.22
2016-08-15T05:27:21.209Z,21.3
2016-08-15T05:28:20.483Z,21.38
2016-08-15T05:29:21.187Z,21.37
2016-08-15T05:30:20.450Z,21.52
2016-08-15T05:31:21.143Z,21.58
2016-08-15T05:32:21.128Z,21.55
2016-08-15T05:33:21.120Z,21.63
2016-08-15T05:34:21.095Z,21.61
2016-08-15T05:35:21.084Z,21.61
2016-08-15T05:36:21.064Z,21.67
2016-08-15T05:37:21.054Z,21.63
2016-08-15T05:38:21.035Z,21.63
2016-08-15T05:39:21.022Z,21.63
2016-08-15T05:40:20.998Z,21.67
2016-08-15T05:41:20.985Z,21.68
2016-08-15T05:42:20.285Z,21.7
2016-08-15T05:43:20.945Z,21.67
2016-08-15T05:44:20.931Z,21.68
2016-08-15T05:45:20.206Z,21.63
2016-08-15T05:46:20.898Z,21.68
2016-08-15T05:47:20.887Z,21.63
2016-08-15T05:48:20.870Z,21.64
2016-08-15T05:49:20.851Z,21.63
2016-08-15T05:50:20.130Z,21.53
2016-08-15T05:51:20.818Z,21.56
2016-08-15T05:52:20.800Z,21.58
2016-08-15T05:53:20.792Z,21.53
2016-08-15T05:54:20.769Z,21.55
2016-08-15T05:55:20.755Z,21.58
2016-08-15T05:56:20.734Z,21.63
2016-08-15T05:57:20.719Z,21.68
2016-08-15T05:58:20.706Z,21.66
2016-08-15T05:59:20.703Z,21.7
2016-08-15T06:00:20.668Z,21.63
2016-08-15T06:01:20.650Z,21.56
2016-08-15T06:02:20.633Z,21.59
2016-08-15T06:03:20.638Z,21.49
2016-08-15T06:04:20.612Z,21.52
2016-08-15T06:05:20.592Z,21.53
2016-08-15T06:06:20.570Z,21.56
2016-08-15T06:07:20.551Z,21.55
2016-08-15T06:08:20.540Z,21.58
2016-08-15T06:09:20.528Z,21.48
2016-08-15T06:10:20.512Z,21.56
2016-08-15T06:11:20.510Z,21.56
2016-08-15T06:12:20.477Z,21.59
2016-08-15T06:13:20.468Z,21.59
2016-08-15T06:14:20.442Z,21.58
2016-08-15T06:15:20.424Z,21.55
2016-08-15T06:16:20.415Z,21.58
2016-08-15T06:17:20.394Z,21.46
2016-08-15T06:18:20.377Z,21.53
2016-08-15T06:19:20.362Z,21.38
2016-08-15T06:20:20.351Z,21.33
2016-08-15T06:21:20.336Z,21.26
2016-08-15T06:22:20.324Z,21.31
2016-08-15T06:23:20.299Z,21.34
2016-08-15T06:24:19.578Z,21.43
2016-08-15T06:25:20.270Z,21.37
2016-08-15T06:26:20.249Z,21.26
2016-08-15T06:27:19.523Z,21.22
2016-08-15T06:28:20.223Z,21.26
2016-08-15T06:29:20.201Z,21.13
2016-08-15T06:30:20.178Z,21.18
2016-08-15T06:31:20.167Z,21.27
2016-08-15T06:32:20.158Z,21.26
2016-08-15T06:33:20.134Z,21.31
2016-08-15T06:34:20.122Z,21.37
2016-08-15T06:35:20.102Z,21.48
2016-08-15T06:36:20.082Z,21.51
2016-08-15T06:37:20.079Z,21.53
2016-08-15T06:38:20.051Z,21.63
2016-08-15T06:39:20.040Z,21.58
2016-08-15T06:40:20.019Z,21.64
2016-08-15T06:41:19.994Z,21.59
2016-08-15T06:42:19.279Z,21.61
2016-08-15T06:43:19.962Z,21.67
2016-08-15T06:44:19.956Z,21.63
2016-08-15T06:45:19.936Z,21.55
2016-08-15T06:46:19.931Z,21.55
2016-08-15T06:47:19.907Z,21.51
2016-08-15T06:48:19.881Z,21.58
2016-08-15T06:49:19.870Z,21.63
2016-08-15T06:50:19.853Z,21.63
2016-08-15T06:51:19.837Z,21.55
2016-08-15T06:52:19.817Z,21.67
2016-08-15T06:53:19.810Z,21.73
2016-08-15T06:54:19.784Z,21.71
2016-08-15T06:55:19.062Z,21.63
2016-08-15T06:56:19.758Z,21.75
2016-08-15T06:57:19.734Z,21.68
2016-08-15T06:58:19.723Z,21.68
2016-08-15T06:59:19.717Z,21.67
2016-08-15T07:00:19.696Z,21.67
2016-08-15T07:01:19.686Z,21.7
2016-08-15T07:02:19.656Z,21.7
2016-08-15T07:03:19.643Z,21.73
2016-08-15T07:04:19.633Z,21.74
2016-08-15T07:05:19.620Z,21.75
2016-08-15T07:06:19.594Z,21.79
2016-08-15T07:07:19.593Z,21.68
2016-08-15T07:08:19.557Z,21.75
2016-08-15T07:09:19.544Z,21.74
2016-08-15T07:10:20.526Z,21.82
2016-08-15T07:11:18.807Z,21.77
2016-08-15T07:12:19.496Z,21.77
2016-08-15T07:13:19.476Z,21.73
2016-08-15T07:14:19.470Z,21.79
2016-08-15T07:15:19.450Z,21.75
2016-08-15T07:16:19.432Z,21.74
2016-08-15T07:17:19.407Z,21.75
2016-08-15T07:18:19.392Z,21.81
2016-08-15T07:19:19.388Z,21.73
2016-08-15T07:20:19.363Z,21.81
2016-08-15T07:21:19.361Z,21.74
2016-08-15T07:22:19.333Z,21.81
2016-08-15T07:23:19.315Z,21.77
2016-08-15T07:24:18.592Z,21.81
2016-08-15T07:25:19.279Z,21.74
2016-08-15T07:26:19.284Z,21.81
2016-08-15T07:27:19.248Z,21.73
2016-08-15T07:28:18.529Z,21.75
2016-08-15T07:29:19.260Z,21.73
2016-08-15T07:30:19.205Z,21.74
2016-08-15T07:31:19.184Z,21.79
2016-08-15T07:32:19.177Z,21.73
2016-08-15T07:33:19.155Z,21.74
2016-08-15T07:34:19.140Z,21.75
2016-08-15T07:35:19.135Z,21.81
2016-08-15T07:36:19.160Z,21.73
2016-08-15T07:37:19.089Z,21.74
2016-08-15T07:38:19.104Z,21.75
2016-08-15T07:39:19.058Z,21.83
2016-08-15T07:40:19.036Z,21.74
2016-08-15T07:41:19.026Z,21.83
2016-08-15T07:42:19.006Z,21.89
2016-08-15T07:43:18.998Z,21.85
2016-08-15T07:44:18.985Z,21.83
2016-08-15T07:45:18.960Z,21.85
2016-08-15T07:46:18.942Z,21.86
2016-08-15T07:47:18.936Z,21.83
2016-08-15T07:48:18.913Z,21.82
2016-08-15T07:49:18.891Z,21.85
2016-08-15T07:50:18.876Z,21.99
2016-08-15T07:51:18.156Z,21.83
2016-08-15T07:52:18.858Z,21.86
2016-08-15T07:53:18.828Z,21.91
2016-08-15T07:54:18.099Z,21.91
2016-08-15T07:55:18.799Z,22.08
2016-08-15T07:56:18.788Z,22.11
2016-08-15T07:57:18.761Z,22.14
2016-08-15T07:58:18.745Z,22.21
2016-08-15T07:59:18.024Z,22.2
2016-08-15T08:00:18.723Z,22.26
2016-08-15T08:01:18.706Z,22.24
2016-08-15T08:02:18.688Z,22.23
2016-08-15T08:03:18.667Z,22.26
2016-08-15T08:04:18.654Z,22.26
2016-08-15T08:05:18.640Z,22.31
2016-08-15T08:06:18.623Z,22.24
2016-08-15T08:07:17.192Z,22.2
2016-08-15T08:08:18.592Z,22.33
2016-08-15T08:09:18.565Z,22.21
2016-08-15T08:10:17.847Z,22.33
2016-08-15T08:11:18.548Z,22.38
2016-08-15T08:12:18.520Z,22.27
2016-08-15T08:13:18.506Z,22.24
2016-08-15T08:14:17.814Z,22.11
2016-08-15T08:15:18.462Z,22.08
2016-08-15T08:16:18.459Z,21.9
2016-08-15T08:17:17.731Z,21.85
2016-08-15T08:18:18.430Z,21.75
2016-08-15T08:19:18.413Z,21.55
2016-08-15T08:20:18.408Z,21.42
2016-08-15T08:21:18.385Z,21.28
2016-08-15T08:22:18.376Z,21.11
2016-08-15T08:23:18.347Z,21.3
2016-08-15T08:24:18.328Z,21.37
2016-08-15T08:25:18.319Z,21.46
2016-08-15T08:26:18.293Z,21.63
2016-08-15T08:27:18.287Z,21.66
2016-08-15T08:28:18.260Z,21.49
2016-08-15T08:29:17.538Z,21.48
2016-08-15T08:30:18.233Z,21.43
2016-08-15T08:31:18.214Z,21.36
2016-08-15T08:32:18.192Z,21.38
2016-08-15T08:33:18.199Z,21.48
2016-08-15T08:34:18.167Z,21.53
2016-08-15T08:35:18.150Z,21.63
2016-08-15T08:36:18.139Z,21.67
2016-08-15T08:37:18.115Z,21.73
2016-08-15T08:38:18.100Z,21.66
2016-08-15T08:39:18.084Z,21.56
2016-08-15T08:40:18.071Z,21.52
2016-08-15T08:41:18.057Z,21.58
2016-08-15T08:42:16.614Z,21.66
2016-08-15T08:43:18.016Z,21.64
2016-08-15T08:44:18.003Z,21.73
2016-08-15T08:45:17.988Z,21.81
2016-08-15T08:46:17.971Z,21.77
2016-08-15T08:47:17.959Z,21.75
2016-08-15T08:48:17.933Z,21.89
2016-08-15T08:49:17.210Z,21.86
2016-08-15T08:50:17.920Z,21.83
2016-08-15T08:51:17.884Z,21.91
2016-08-15T08:52:17.867Z,21.83
2016-08-15T08:53:17.856Z,21.91
2016-08-15T08:54:17.842Z,21.85
2016-08-15T08:55:17.826Z,21.86
2016-08-15T08:56:17.806Z,21.9
2016-08-15T08:57:17.789Z,21.96
2016-08-15T08:58:17.810Z,21.9
2016-08-15T08:59:17.754Z,21.89
2016-08-15T09:00:17.754Z,21.89
2016-08-15T09:01:17.732Z,21.94
2016-08-15T09:02:17.706Z,21.94
2016-08-15T09:03:17.694Z,21.94
2016-08-15T09:04:17.674Z,21.98
2016-08-15T09:05:17.656Z,21.98
2016-08-15T09:06:17.670Z,21.93
2016-08-15T09:07:17.985Z,21.9
2016-08-15T09:08:17.604Z,21.96
2016-08-15T09:09:17.598Z,21.99
2016-08-15T09:10:17.574Z,21.94
2016-08-15T09:11:17.549Z,21.94
2016-08-15T09:12:17.559Z,21.94
2016-08-15T09:13:17.525Z,21.96
2016-08-15T09:14:17.508Z,21.93
2016-08-15T09:15:17.497Z,21.93
2016-08-15T09:16:17.476Z,21.93
2016-08-15T09:17:17.462Z,21.98
2016-08-15T09:18:17.439Z,21.93
2016-08-15T09:19:17.434Z,21.98
2016-08-15T09:20:17.418Z,21.93
2016-08-15T09:21:17.400Z,22.02
2016-08-15T09:22:17.388Z,22.02
2016-08-15T09:23:17.366Z,21.98
2016-08-15T09:24:17.350Z,22.04
2016-08-15T09:25:17.330Z,22.05
2016-08-15T09:26:17.322Z,21.99
2016-08-15T09:27:17.302Z,21.99
2016-08-15T09:28:17.281Z,21.99
2016-08-15T09:29:17.262Z,22.04
2016-08-15T09:30:17.257Z,22.11
2016-08-15T09:31:17.236Z,22.08
2016-08-15T09:32:17.230Z,22.02
2016-08-15T09:33:17.208Z,22.02
2016-08-15T09:34:17.180Z,21.93
2016-08-15T09:35:17.172Z,22.05
2016-08-15T09:36:17.151Z,22.04
2016-08-15T09:37:17.136Z,22.02
2016-08-15T09:38:17.129Z,22.11
2016-08-15T09:39:17.117Z,22.06
2016-08-15T09:40:17.092Z,22.04
2016-08-15T09:41:16.361Z,22.09
2016-08-15T09:42:17.061Z,21.99
2016-08-15T09:43:17.042Z,22.08
2016-08-15T09:44:17.017Z,21.99
2016-08-15T09:45:17.006Z,22.06
2016-08-15T09:46:16.995Z,22.09
2016-08-15T09:47:16.977Z,21.99
2016-08-15T09:48:16.268Z,22.04
2016-08-15T09:49:16.946Z,22.11
2016-08-15T09:50:16.922Z,22.11
2016-08-15T09:51:16.913Z,22.02
2016-08-15T09:52:16.892Z,22.05
2016-08-15T09:53:16.880Z,22.09
2016-08-15T09:54:16.875Z,22.04
2016-08-15T09:55:16.858Z,22.02
2016-08-15T09:56:16.125Z,21.82
2016-08-15T09:57:16.816Z,21.36
2016-08-15T09:58:16.801Z,21.4
2016-08-15T09:59:16.783Z,21.38
2016-08-15T10:00:16.058Z,21.55
2016-08-15T10:01:16.753Z,21.55
2016-08-15T10:02:16.735Z,21.56
2016-08-15T10:03:16.718Z,21.58
2016-08-15T10:04:16.714Z,21.73
2016-08-15T10:05:16.691Z,21.7
2016-08-15T10:06:16.669Z,21.55
2016-08-15T10:07:15.949Z,21.46
2016-08-15T10:08:16.634Z,21.24
2016-08-15T10:09:16.621Z,21.13
2016-08-15T10:10:16.608Z,21.26
2016-08-15T10:11:16.583Z,21.38
2016-08-15T10:12:16.569Z,21.4
2016-08-15T10:13:16.555Z,21.43
2016-08-15T10:14:16.535Z,21.51
2016-08-15T10:15:16.525Z,21.59
2016-08-15T10:16:16.498Z,21.66
2016-08-15T10:17:16.491Z,21.71
2016-08-15T10:18:16.476Z,21.74
2016-08-15T10:20:16.453Z,21.75
2016-08-15T10:21:15.708Z,21.73
2016-08-15T10:22:16.412Z,21.81
2016-08-15T10:23:16.390Z,21.77
2016-08-15T10:24:16.372Z,21.68
2016-08-15T10:25:16.343Z,21.77
2016-08-15T10:26:16.337Z,21.81
2016-08-15T10:27:16.320Z,21.77
2016-08-15T10:28:16.310Z,21.73
2016-08-15T10:29:16.288Z,21.75
2016-08-15T10:30:16.262Z,21.79
2016-08-15T10:31:15.556Z,21.79
2016-08-15T10:32:16.237Z,21.91
2016-08-15T10:33:16.229Z,21.85
2016-08-15T10:34:16.204Z,21.75
2016-08-15T10:35:16.194Z,21.82
2016-08-15T10:36:16.176Z,21.77
2016-08-15T10:37:15.447Z,21.85
2016-08-15T10:38:16.142Z,21.91
2016-08-15T10:39:16.796Z,21.89
2016-08-15T10:40:16.112Z,21.83
2016-08-15T10:41:16.086Z,21.77
2016-08-15T10:42:16.091Z,21.86
2016-08-15T10:43:15.355Z,21.82
2016-08-15T10:44:16.042Z,21.89
2016-08-15T10:45:15.314Z,21.83
2016-08-15T10:46:16.011Z,21.94
2016-08-15T10:47:15.998Z,21.93
2016-08-15T10:48:15.288Z,21.98
2016-08-15T10:49:15.970Z,21.77
2016-08-15T10:50:16.002Z,21.71
2016-08-15T10:51:15.924Z,21.82
2016-08-15T10:52:15.915Z,21.79
2016-08-15T10:53:15.902Z,21.68
2016-08-15T10:54:15.170Z,21.81
2016-08-15T10:55:15.874Z,21.74
2016-08-15T10:56:15.843Z,21.86
2016-08-15T10:57:15.827Z,21.81
2016-08-15T10:58:15.823Z,21.94
2016-08-15T10:59:15.796Z,21.99
2016-08-15T11:00:15.783Z,21.91
2016-08-15T11:01:15.770Z,22.02
2016-08-15T11:02:15.762Z,22.02
2016-08-15T11:03:15.725Z,22.01
2016-08-15T11:04:15.725Z,21.99
2016-08-15T11:05:15.697Z,22.04
2016-08-15T11:06:15.683Z,21.94
2016-08-15T11:07:15.672Z,21.91
2016-08-15T11:08:15.653Z,21.98
2016-08-15T11:09:15.629Z,22.01
2016-08-15T11:10:15.621Z,21.98
2016-08-15T11:11:15.602Z,21.74
2016-08-15T11:12:14.879Z,21.7
2016-08-15T11:13:15.569Z,21.77
2016-08-15T11:14:15.550Z,21.79
2016-08-15T11:15:15.535Z,21.73
2016-08-15T11:16:15.518Z,21.86
2016-08-15T11:17:15.505Z,21.74
2016-08-15T11:18:15.486Z,21.74
2016-08-15T11:19:14.758Z,21.71
2016-08-15T11:20:14.046Z,21.7
2016-08-15T11:21:15.438Z,21.67
2016-08-15T11:22:15.415Z,21.63
2016-08-15T11:23:15.405Z,21.59
2016-08-15T11:24:15.405Z,21.71
2016-08-15T11:25:15.374Z,21.71
2016-08-15T11:26:15.355Z,21.82
2016-08-15T11:27:15.436Z,21.73
2016-08-15T11:28:14.613Z,21.68
2016-08-15T11:29:15.303Z,21.64
2016-08-15T11:30:15.297Z,21.63
2016-08-15T11:31:15.270Z,21.67
2016-08-15T11:32:15.254Z,21.75
2016-08-15T11:33:15.239Z,21.81
2016-08-15T11:34:15.222Z,21.91
2016-08-15T11:35:15.206Z,21.86
2016-08-15T11:36:15.183Z,21.86
2016-08-15T11:37:15.174Z,21.77
2016-08-15T11:38:15.156Z,21.75
2016-08-15T11:39:15.144Z,21.73
2016-08-15T11:40:14.419Z,21.73
2016-08-15T11:41:15.110Z,21.86
2016-08-15T11:42:15.086Z,21.83
2016-08-15T11:43:15.074Z,21.81
2016-08-15T11:44:15.062Z,21.85
2016-08-15T11:45:15.048Z,21.93
2016-08-15T11:46:15.023Z,21.9
2016-08-15T11:47:15.017Z,21.89
2016-08-15T11:48:14.994Z,21.96
2016-08-15T11:49:14.976Z,21.91
2016-08-15T11:50:14.960Z,21.96
2016-08-15T11:51:14.944Z,21.96
2016-08-15T11:52:14.936Z,22.02
2016-08-15T11:53:14.196Z,22.02
2016-08-15T11:54:14.894Z,22.02
2016-08-15T11:55:14.876Z,22.09
2016-08-15T11:56:14.865Z,22.02
2016-08-15T11:57:14.848Z,21.9
2016-08-15T11:58:14.828Z,21.98
2016-08-15T11:59:14.810Z,21.86
2016-08-15T12:00:14.091Z,21.94
2016-08-15T12:01:14.783Z,21.91
2016-08-15T12:02:14.760Z,21.81
2016-08-15T12:03:14.758Z,21.83
2016-08-15T12:04:14.742Z,21.85
2016-08-15T12:05:14.711Z,21.86
2016-08-15T12:06:14.697Z,21.83
2016-08-15T12:07:14.684Z,21.68
2016-08-15T12:08:14.675Z,21.81
2016-08-15T12:09:14.655Z,21.98
2016-08-15T12:10:14.637Z,21.86
2016-08-15T12:11:14.613Z,21.83
2016-08-15T12:12:14.592Z,21.79
2016-08-15T12:13:14.580Z,21.93
2016-08-15T12:14:14.581Z,22.01
2016-08-15T12:15:14.545Z,21.91
2016-08-15T12:16:14.531Z,22.01
2016-08-15T12:17:14.510Z,21.99
2016-08-15T12:18:13.791Z,22.06
2016-08-15T12:19:14.484Z,22.08
2016-08-15T12:20:14.476Z,22.11
2016-08-15T12:21:14.463Z,22.12
2016-08-15T12:22:13.729Z,22.11
2016-08-15T12:23:14.416Z,22.08
2016-08-15T12:24:14.404Z,22.14
2016-08-15T12:25:13.678Z,22.14
2016-08-15T12:26:14.369Z,22.11
2016-08-15T12:27:14.347Z,22.12
2016-08-15T12:28:14.337Z,22.14
2016-08-15T12:29:14.317Z,22.04
2016-08-15T12:30:14.316Z,22.09
2016-08-15T12:31:14.278Z,22.04
2016-08-15T12:32:14.271Z,21.99
2016-08-15T12:33:14.263Z,22.01
2016-08-15T12:34:14.242Z,21.96
2016-08-15T12:35:14.233Z,21.98
2016-08-15T12:36:14.196Z,21.91
2016-08-15T12:37:13.484Z,21.9
2016-08-15T12:38:14.164Z,21.99
2016-08-15T12:39:14.160Z,21.9
2016-08-15T12:40:14.142Z,21.79
2016-08-15T12:41:14.119Z,21.91
2016-08-15T12:42:14.106Z,21.96
2016-08-15T12:43:14.092Z,21.9
2016-08-15T12:44:13.364Z,21.94
2016-08-15T12:45:14.059Z,21.86
2016-08-15T12:46:14.052Z,22.02
2016-08-15T12:47:14.230Z,21.94
2016-08-15T12:48:14.013Z,22.01
2016-08-15T12:49:13.985Z,21.93
2016-08-15T12:50:13.976Z,21.98
2016-08-15T12:51:13.956Z,22.04
2016-08-15T12:52:13.227Z,21.98
2016-08-15T12:53:13.929Z,22.01
2016-08-15T12:54:13.917Z,22.04